createdAt,value
2023-05-24T00:00:36.584Z,993.99
2023-05-24T00:01:35.597Z,993.98
2023-05-24T00:02:35.632Z,994.02
2023-05-24T00:03:35.640Z,994.02
2023-05-24T00:04:35.598Z,994.02
2023-05-24T00:05:35.541Z,994.01
2023-05-24T00:06:35.572Z,994.02
2023-05-24T00:07:35.529Z,994.01
2023-05-24T00:08:35.501Z,994.05
2023-05-24T00:09:35.498Z,994.01
2023-05-24T00:10:35.498Z,994.04
2023-05-24T00:11:35.477Z,994.00
2023-05-24T00:12:35.516Z,994.05
2023-05-24T00:13:35.443Z,994.08
2023-05-24T00:14:35.476Z,994.07
2023-05-24T00:15:35.425Z,994.04
2023-05-24T00:16:35.459Z,994.05
2023-05-24T00:17:35.421Z,994.06
2023-05-24T00:18:35.403Z,994.03
2023-05-24T00:19:35.381Z,994.03
2023-05-24T00:20:35.409Z,994.09
2023-05-24T00:21:35.391Z,994.08
2023-05-24T00:22:35.355Z,994.04
2023-05-24T00:23:35.345Z,994.03
2023-05-24T00:24:35.341Z,994.14
2023-05-24T00:25:35.360Z,994.05
2023-05-24T00:26:35.314Z,994.06
2023-05-24T00:27:35.320Z,994.03
2023-05-24T00:28:35.290Z,994.07
2023-05-24T00:29:35.347Z,994.11
2023-05-24T00:30:35.295Z,994.16
2023-05-24T00:31:35.337Z,994.13
2023-05-24T00:32:35.270Z,994.10
2023-05-24T00:33:35.252Z,994.10
2023-05-24T00:34:35.243Z,994.13
2023-05-24T00:35:35.237Z,994.10
2023-05-24T00:36:35.217Z,994.16
2023-05-24T00:37:35.205Z,994.20
2023-05-24T00:38:35.257Z,994.17
2023-05-24T00:39:35.210Z,994.19
2023-05-24T00:40:35.247Z,994.15
2023-05-24T00:41:35.177Z,994.20
2023-05-24T00:42:35.149Z,994.22
2023-05-24T00:43:35.145Z,994.19
2023-05-24T00:44:35.173Z,994.20
2023-05-24T00:45:35.124Z,994.14
2023-05-24T00:46:35.201Z,994.16
2023-05-24T00:47:35.101Z,994.15
2023-05-24T00:48:35.113Z,994.15
2023-05-24T00:49:35.090Z,994.20
2023-05-24T00:50:35.077Z,994.18
2023-05-24T00:51:35.103Z,994.20
2023-05-24T00:52:35.064Z,994.19
2023-05-24T00:53:35.055Z,994.16
2023-05-24T00:54:35.058Z,994.20
2023-05-24T00:55:35.024Z,994.36
2023-05-24T00:56:35.009Z,994.29
2023-05-24T00:57:34.997Z,994.28
2023-05-24T00:58:35.002Z,994.23
2023-05-24T00:59:34.993Z,994.23
2023-05-24T01:00:34.971Z,994.32
2023-05-24T01:01:34.995Z,994.27
2023-05-24T01:02:35.002Z,994.30
2023-05-24T01:03:35.040Z,994.33
2023-05-24T01:04:34.944Z,994.30
2023-05-24T01:05:34.936Z,994.30
2023-05-24T01:06:34.911Z,994.30
2023-05-24T01:07:34.913Z,994.34
2023-05-24T01:08:36.660Z,994.35
2023-05-24T01:09:34.904Z,994.29
2023-05-24T01:10:34.878Z,994.31
2023-05-24T01:11:34.863Z,994.28
2023-05-24T01:12:34.888Z,994.30
2023-05-24T01:13:34.908Z,994.34
2023-05-24T01:14:34.845Z,994.34
2023-05-24T01:15:34.851Z,994.28
2023-05-24T01:16:34.928Z,994.28
2023-05-24T01:17:34.901Z,994.33
2023-05-24T01:18:34.799Z,994.26
2023-05-24T01:19:34.797Z,994.31
2023-05-24T01:20:35.032Z,994.29
2023-05-24T01:21:34.769Z,994.34
2023-05-24T01:22:34.747Z,994.31
2023-05-24T01:23:34.758Z,994.33
2023-05-24T01:24:34.723Z,994.33
2023-05-24T01:25:34.738Z,994.30
2023-05-24T01:26:34.719Z,994.32
2023-05-24T01:27:34.726Z,994.33
2023-05-24T01:28:34.694Z,994.27
2023-05-24T01:29:34.700Z,994.28
2023-05-24T01:30:34.751Z,994.29
2023-05-24T01:31:34.687Z,994.24
2023-05-24T01:32:34.704Z,994.27
2023-05-24T01:33:34.633Z,994.35
2023-05-24T01:34:35.740Z,994.31
2023-05-24T01:35:34.626Z,994.26
2023-05-24T01:36:34.615Z,994.23
2023-05-24T01:37:34.613Z,994.27
2023-05-24T01:38:34.602Z,994.26
2023-05-24T01:39:34.608Z,994.27
2023-05-24T01:40:34.578Z,994.28
2023-05-24T01:41:34.567Z,994.28
2023-05-24T01:42:34.569Z,994.25
2023-05-24T01:43:34.570Z,994.31
2023-05-24T01:44:34.549Z,994.26
2023-05-24T01:45:34.516Z,994.35
2023-05-24T01:46:35.552Z,994.35
2023-05-24T01:47:34.533Z,994.35
2023-05-24T01:48:34.490Z,994.34
2023-05-24T01:49:34.491Z,994.32
2023-05-24T01:50:34.468Z,994.36
2023-05-24T01:51:34.493Z,994.30
2023-05-24T01:52:34.524Z,994.34
2023-05-24T01:53:34.446Z,994.29
2023-05-24T01:54:34.449Z,994.30
2023-05-24T01:55:34.445Z,994.30
2023-05-24T01:56:34.428Z,994.25
2023-05-24T01:57:34.435Z,994.27
2023-05-24T01:58:34.404Z,994.20
2023-05-24T01:59:34.417Z,994.25
2023-05-24T02:00:34.387Z,994.24
2023-05-24T02:01:34.510Z,994.22
2023-05-24T02:02:34.484Z,994.24
2023-05-24T02:03:34.374Z,994.23
2023-05-24T02:04:34.358Z,994.19
2023-05-24T02:05:34.330Z,994.19
2023-05-24T02:06:34.318Z,994.24
2023-05-24T02:07:34.305Z,994.21
2023-05-24T02:08:34.317Z,994.21
2023-05-24T02:09:34.349Z,994.23
2023-05-24T02:10:34.271Z,994.20
2023-05-24T02:11:34.257Z,994.16
2023-05-24T02:12:34.281Z,994.15
2023-05-24T02:13:34.240Z,994.13
2023-05-24T02:14:34.252Z,994.12
2023-05-24T02:15:34.233Z,994.17
2023-05-24T02:16:34.298Z,994.18
2023-05-24T02:17:34.250Z,994.16
2023-05-24T02:18:34.192Z,994.12
2023-05-24T02:19:34.233Z,994.15
2023-05-24T02:20:34.250Z,994.11
2023-05-24T02:21:34.178Z,994.06
2023-05-24T02:22:34.166Z,994.11
2023-05-24T02:23:34.166Z,994.09
2023-05-24T02:24:34.154Z,994.12
2023-05-24T02:25:34.136Z,994.14
2023-05-24T02:26:34.159Z,994.11
2023-05-24T02:27:34.128Z,994.15
2023-05-24T02:28:34.115Z,994.12
2023-05-24T02:29:34.084Z,994.12
2023-05-24T02:30:34.086Z,994.10
2023-05-24T02:31:34.147Z,994.07
2023-05-24T02:32:34.110Z,994.12
2023-05-24T02:33:34.065Z,994.09
2023-05-24T02:34:34.086Z,994.15
2023-05-24T02:35:34.028Z,994.10
2023-05-24T02:36:34.017Z,994.07
2023-05-24T02:37:34.016Z,994.06
2023-05-24T02:38:33.998Z,994.12
2023-05-24T02:39:34.021Z,994.08
2023-05-24T02:40:34.002Z,994.06
2023-05-24T02:41:34.015Z,994.05
2023-05-24T02:42:33.990Z,994.04
2023-05-24T02:43:33.954Z,994.02
2023-05-24T02:44:33.949Z,993.98
2023-05-24T02:45:33.985Z,994.00
2023-05-24T02:46:33.992Z,994.00
2023-05-24T02:47:33.946Z,993.97
2023-05-24T02:48:33.923Z,993.99
2023-05-24T02:49:33.890Z,993.99
2023-05-24T02:50:33.896Z,993.93
2023-05-24T02:51:33.874Z,993.94
2023-05-24T02:52:33.859Z,993.99
2023-05-24T02:53:33.877Z,993.94
2023-05-24T02:54:33.840Z,994.03
2023-05-24T02:55:33.857Z,993.92
2023-05-24T02:56:33.873Z,993.96
2023-05-24T02:57:33.824Z,993.98
2023-05-24T02:58:33.809Z,993.96
2023-05-24T02:59:33.793Z,994.00
2023-05-24T03:00:33.802Z,994.03
2023-05-24T03:01:33.801Z,994.04
2023-05-24T03:02:33.870Z,994.00
2023-05-24T03:03:33.836Z,994.09
2023-05-24T03:04:33.746Z,994.06
2023-05-24T03:05:33.758Z,994.05
2023-05-24T03:06:33.725Z,994.04
2023-05-24T03:07:33.797Z,994.06
2023-05-24T03:08:33.705Z,994.07
2023-05-24T03:09:33.688Z,994.13
2023-05-24T03:10:33.688Z,994.09
2023-05-24T03:11:34.689Z,994.14
2023-05-24T03:12:33.685Z,994.11
2023-05-24T03:13:33.645Z,994.13
2023-05-24T03:14:33.648Z,994.10
2023-05-24T03:15:33.630Z,994.07
2023-05-24T03:16:33.672Z,994.14
2023-05-24T03:17:33.693Z,994.02
2023-05-24T03:18:33.606Z,994.11
2023-05-24T03:19:33.588Z,994.14
2023-05-24T03:20:33.759Z,994.06
2023-05-24T03:21:33.612Z,994.10
2023-05-24T03:22:33.559Z,994.06
2023-05-24T03:23:33.557Z,994.11
2023-05-24T03:24:33.579Z,994.16
2023-05-24T03:25:33.535Z,994.11
2023-05-24T03:26:33.660Z,994.15
2023-05-24T03:27:33.505Z,994.12
2023-05-24T03:28:33.481Z,994.11
2023-05-24T03:29:33.497Z,994.12
2023-05-24T03:30:33.497Z,994.06
2023-05-24T03:31:33.521Z,994.05
2023-05-24T03:32:33.516Z,994.02
2023-05-24T03:33:33.449Z,994.04
2023-05-24T03:34:33.480Z,994.01
2023-05-24T03:35:33.469Z,993.94
2023-05-24T03:36:33.428Z,994.00
2023-05-24T03:37:33.455Z,993.97
2023-05-24T03:38:33.422Z,993.98
2023-05-24T03:39:33.417Z,994.00
2023-05-24T03:40:33.440Z,994.06
2023-05-24T03:41:33.399Z,994.05
2023-05-24T03:42:33.371Z,994.07
2023-05-24T03:43:33.368Z,994.09
2023-05-24T03:44:33.377Z,994.08
2023-05-24T03:45:39.012Z,994.07
2023-05-24T03:46:35.440Z,994.22
2023-05-24T03:47:33.390Z,994.16
2023-05-24T03:48:33.308Z,994.14
2023-05-24T03:49:33.311Z,994.14
2023-05-24T03:50:33.287Z,994.19
2023-05-24T03:51:33.285Z,994.19
2023-05-24T03:52:33.280Z,994.21
2023-05-24T03:53:33.264Z,994.19
2023-05-24T03:54:33.267Z,994.26
2023-05-24T03:55:33.246Z,994.24
2023-05-24T03:56:33.225Z,994.27
2023-05-24T03:57:33.233Z,994.19
2023-05-24T03:58:33.217Z,994.20
2023-05-24T03:59:33.224Z,994.26
2023-05-24T04:00:33.192Z,994.28
2023-05-24T04:01:34.510Z,994.29
2023-05-24T04:02:34.274Z,994.30
2023-05-24T04:03:33.207Z,994.30
2023-05-24T04:04:33.176Z,994.30
2023-05-24T04:05:33.144Z,994.28
2023-05-24T04:06:33.131Z,994.20
2023-05-24T04:07:33.149Z,994.22
2023-05-24T04:08:33.116Z,994.19
2023-05-24T04:09:33.119Z,994.20
2023-05-24T04:10:33.103Z,994.23
2023-05-24T04:11:33.122Z,994.27
2023-05-24T04:12:33.083Z,994.24
2023-05-24T04:13:33.094Z,994.24
2023-05-24T04:14:33.058Z,994.21
2023-05-24T04:15:33.046Z,994.24
2023-05-24T04:16:33.077Z,994.27
2023-05-24T04:17:33.133Z,994.32
2023-05-24T04:18:33.105Z,994.33
2023-05-24T04:19:33.029Z,994.23
2023-05-24T04:20:33.935Z,994.31
2023-05-24T04:21:32.971Z,994.32
2023-05-24T04:22:32.961Z,994.31
2023-05-24T04:23:32.969Z,994.26
2023-05-24T04:24:33.002Z,994.25
2023-05-24T04:25:32.943Z,994.26
2023-05-24T04:26:32.922Z,994.22
2023-05-24T04:27:32.932Z,994.22
2023-05-24T04:28:32.922Z,994.23
2023-05-24T04:29:32.896Z,994.25
2023-05-24T04:30:32.908Z,994.27
2023-05-24T04:31:32.943Z,994.26
2023-05-24T04:32:32.920Z,994.31
2023-05-24T04:33:32.870Z,994.29
2023-05-24T04:34:32.863Z,994.25
2023-05-24T04:35:32.853Z,994.16
2023-05-24T04:36:32.836Z,994.20
2023-05-24T04:37:32.839Z,994.21
2023-05-24T04:38:32.818Z,994.23
2023-05-24T04:39:32.854Z,994.26
2023-05-24T04:40:32.813Z,994.27
2023-05-24T04:41:32.815Z,994.23
2023-05-24T04:42:32.765Z,994.26
2023-05-24T04:43:32.765Z,994.27
2023-05-24T04:44:32.809Z,994.30
2023-05-24T04:45:32.772Z,994.28
2023-05-24T04:46:32.750Z,994.37
2023-05-24T04:47:32.778Z,994.38
2023-05-24T04:48:32.723Z,994.40
2023-05-24T04:49:32.748Z,994.36
2023-05-24T04:50:32.705Z,994.40
2023-05-24T04:51:32.688Z,994.43
2023-05-24T04:52:32.700Z,994.40
2023-05-24T04:53:32.666Z,994.44
2023-05-24T04:54:32.658Z,994.49
2023-05-24T04:55:32.702Z,994.52
2023-05-24T04:56:32.649Z,994.54
2023-05-24T04:57:32.636Z,994.48
2023-05-24T04:58:32.629Z,994.48
2023-05-24T04:59:32.600Z,994.51
2023-05-24T05:00:33.656Z,994.48
2023-05-24T05:02:05.610Z,994.46
2023-05-24T05:02:32.738Z,994.46
2023-05-24T05:03:32.695Z,994.48
2023-05-24T05:04:32.557Z,994.52
2023-05-24T05:05:32.577Z,994.55
2023-05-24T05:06:32.591Z,994.56
2023-05-24T05:07:32.519Z,994.58
2023-05-24T05:08:32.562Z,994.66
2023-05-24T05:09:32.520Z,994.62
2023-05-24T05:10:32.554Z,994.66
2023-05-24T05:11:32.549Z,994.64
2023-05-24T05:12:32.471Z,994.64
2023-05-24T05:13:32.480Z,994.63
2023-05-24T05:14:32.455Z,994.60
2023-05-24T05:15:32.482Z,994.58
2023-05-24T05:16:32.452Z,994.59
2023-05-24T05:17:32.491Z,994.61
2023-05-24T05:18:32.411Z,994.58
2023-05-24T05:19:32.423Z,994.56
2023-05-24T05:20:32.452Z,994.49
2023-05-24T05:21:32.397Z,994.52
2023-05-24T05:22:32.409Z,994.50
2023-05-24T05:23:32.362Z,994.54
2023-05-24T05:24:32.379Z,994.56
2023-05-24T05:25:32.346Z,994.55
2023-05-24T05:26:32.388Z,994.57
2023-05-24T05:27:32.349Z,994.53
2023-05-24T05:28:32.330Z,994.48
2023-05-24T05:29:32.314Z,994.50
2023-05-24T05:30:32.398Z,994.53
2023-05-24T05:31:32.294Z,994.54
2023-05-24T05:32:32.435Z,994.56
2023-05-24T05:33:32.307Z,994.51
2023-05-24T05:34:32.253Z,994.44
2023-05-24T05:35:32.242Z,994.46
2023-05-24T05:36:32.243Z,994.51
2023-05-24T05:37:32.262Z,994.48
2023-05-24T05:38:32.228Z,994.52
2023-05-24T05:39:32.228Z,994.41
2023-05-24T05:40:32.203Z,994.39
2023-05-24T05:41:32.203Z,994.45
2023-05-24T05:42:32.204Z,994.48
2023-05-24T05:43:32.171Z,994.39
2023-05-24T05:44:32.172Z,994.42
2023-05-24T05:45:32.164Z,994.46
2023-05-24T05:46:32.258Z,994.48
2023-05-24T05:47:32.209Z,994.39
2023-05-24T05:48:32.144Z,994.44
2023-05-24T05:49:32.122Z,994.41
2023-05-24T05:50:32.115Z,994.44
2023-05-24T05:51:32.121Z,994.43
2023-05-24T05:52:32.077Z,994.43
2023-05-24T05:53:33.073Z,994.45
2023-05-24T05:54:32.074Z,994.45
2023-05-24T05:55:32.103Z,994.47
2023-05-24T05:56:32.059Z,994.45
2023-05-24T05:57:32.048Z,994.49
2023-05-24T05:58:32.024Z,994.45
2023-05-24T05:59:32.018Z,994.45
2023-05-24T06:00:32.025Z,994.57
2023-05-24T06:01:32.000Z,994.52
2023-05-24T06:02:32.183Z,994.58
2023-05-24T06:03:32.115Z,994.59
2023-05-24T06:04:32.013Z,994.55
2023-05-24T06:05:31.956Z,994.52
2023-05-24T06:06:31.962Z,994.57
2023-05-24T06:07:31.940Z,994.62
2023-05-24T06:08:31.917Z,994.60
2023-05-24T06:09:31.911Z,994.61
2023-05-24T06:10:31.892Z,994.58
2023-05-24T06:11:31.908Z,994.60
2023-05-24T06:12:31.873Z,994.59
2023-05-24T06:13:31.872Z,994.58
2023-05-24T06:14:31.869Z,994.62
2023-05-24T06:15:31.835Z,994.62
2023-05-24T06:16:31.931Z,994.63
2023-05-24T06:17:31.860Z,994.64
2023-05-24T06:18:31.828Z,994.67
2023-05-24T06:19:31.811Z,994.70
2023-05-24T06:20:31.934Z,994.74
2023-05-24T06:21:31.785Z,994.70
2023-05-24T06:22:31.830Z,994.75
2023-05-24T06:23:31.764Z,994.68
2023-05-24T06:24:31.766Z,994.69
2023-05-24T06:25:31.747Z,994.67
2023-05-24T06:26:31.731Z,994.68
2023-05-24T06:27:31.754Z,994.69
2023-05-24T06:28:31.722Z,994.71
2023-05-24T06:29:31.767Z,994.69
2023-05-24T06:30:31.957Z,994.69
2023-05-24T06:31:31.705Z,994.70
2023-05-24T06:32:31.688Z,994.74
2023-05-24T06:33:31.671Z,994.70
2023-05-24T06:34:31.667Z,994.75
2023-05-24T06:35:31.655Z,994.78
2023-05-24T06:36:31.635Z,994.76
2023-05-24T06:37:31.623Z,994.82
2023-05-24T06:38:31.630Z,994.82
2023-05-24T06:39:31.618Z,994.80
2023-05-24T06:40:31.681Z,994.83
2023-05-24T06:41:31.594Z,994.82
2023-05-24T06:42:31.609Z,994.88
2023-05-24T06:43:31.583Z,994.86
2023-05-24T06:44:31.562Z,994.95
2023-05-24T06:45:31.578Z,994.98
2023-05-24T06:46:31.599Z,994.97
2023-05-24T06:47:32.609Z,994.97
2023-05-24T06:48:31.569Z,995.00
2023-05-24T06:49:31.537Z,995.01
2023-05-24T06:50:31.519Z,995.07
2023-05-24T06:51:31.515Z,994.97
2023-05-24T06:52:31.500Z,994.99
2023-05-24T06:53:31.493Z,995.04
2023-05-24T06:54:31.483Z,995.04
2023-05-24T06:55:31.535Z,995.06
2023-05-24T06:56:31.462Z,995.14
2023-05-24T06:57:31.476Z,995.13
2023-05-24T06:58:31.418Z,995.15
2023-05-24T06:59:31.424Z,995.12
2023-05-24T07:00:31.413Z,995.08
2023-05-24T07:01:31.440Z,995.11
2023-05-24T07:02:31.443Z,995.08
2023-05-24T07:03:31.404Z,995.09
2023-05-24T07:04:31.411Z,995.07
2023-05-24T07:05:31.392Z,995.10
2023-05-24T07:06:31.389Z,995.12
2023-05-24T07:07:31.367Z,995.11
2023-05-24T07:08:31.367Z,995.15
2023-05-24T07:09:31.318Z,995.12
2023-05-24T07:10:31.329Z,995.12
2023-05-24T07:11:31.420Z,995.14
2023-05-24T07:12:31.355Z,995.06
2023-05-24T07:13:31.300Z,995.10
2023-05-24T07:14:31.267Z,995.01
2023-05-24T07:15:31.256Z,995.03
2023-05-24T07:16:31.330Z,994.99
2023-05-24T07:17:31.288Z,995.00
2023-05-24T07:18:31.254Z,995.02
2023-05-24T07:19:31.224Z,995.02
2023-05-24T07:20:31.210Z,995.01
2023-05-24T07:21:31.209Z,995.00
2023-05-24T07:22:31.199Z,994.98
2023-05-24T07:23:31.229Z,995.02
2023-05-24T07:24:31.183Z,995.01
2023-05-24T07:25:31.188Z,995.03
2023-05-24T07:26:31.148Z,995.08
2023-05-24T07:27:31.162Z,995.11
2023-05-24T07:28:31.152Z,995.04
2023-05-24T07:29:31.242Z,995.15
2023-05-24T07:30:32.552Z,995.10
2023-05-24T07:31:31.107Z,995.11
2023-05-24T07:32:31.224Z,995.13
2023-05-24T07:33:31.166Z,995.16
2023-05-24T07:34:31.065Z,995.02
2023-05-24T07:35:31.073Z,995.15
2023-05-24T07:36:34.554Z,995.17
2023-05-24T07:37:31.136Z,995.11
2023-05-24T07:38:31.037Z,995.13
2023-05-24T07:39:31.033Z,995.13
2023-05-24T07:40:31.041Z,995.10
2023-05-24T07:41:31.019Z,995.10
2023-05-24T07:42:32.026Z,995.09
2023-05-24T07:43:31.030Z,995.10
2023-05-24T07:44:30.978Z,995.20
2023-05-24T07:45:30.975Z,995.15
2023-05-24T07:46:31.012Z,995.11
2023-05-24T07:47:31.027Z,995.10
2023-05-24T07:48:30.936Z,995.11
2023-05-24T07:49:30.968Z,995.16
2023-05-24T07:50:30.966Z,995.05
2023-05-24T07:51:30.923Z,995.11
2023-05-24T07:52:30.929Z,995.05
2023-05-24T07:53:30.890Z,995.04
2023-05-24T07:54:31.911Z,995.03
2023-05-24T07:55:30.886Z,995.01
2023-05-24T07:56:30.890Z,995.06
2023-05-24T07:57:30.878Z,995.03
2023-05-24T07:58:30.830Z,995.04
2023-05-24T07:59:30.850Z,994.95
2023-05-24T08:00:30.883Z,994.96
2023-05-24T08:01:30.837Z,995.00
2023-05-24T08:02:30.904Z,994.99
2023-05-24T08:03:30.913Z,995.04
2023-05-24T08:04:30.801Z,994.90
2023-05-24T08:05:30.798Z,994.95
2023-05-24T08:06:30.791Z,994.93
2023-05-24T08:07:30.776Z,994.93
2023-05-24T08:08:30.773Z,994.94
2023-05-24T08:09:30.776Z,994.90
2023-05-24T08:10:30.717Z,994.99
2023-05-24T08:11:30.722Z,994.91
2023-05-24T08:12:30.704Z,994.90
2023-05-24T08:13:30.726Z,995.01
2023-05-24T08:14:30.674Z,994.95
2023-05-24T08:15:30.706Z,994.99
2023-05-24T08:16:30.727Z,994.98
2023-05-24T08:17:30.683Z,994.93
2023-05-24T08:18:30.629Z,994.95
2023-05-24T08:19:30.629Z,994.87
2023-05-24T08:20:30.714Z,994.96
2023-05-24T08:21:30.612Z,994.90
2023-05-24T08:22:30.612Z,994.89
2023-05-24T08:23:30.650Z,995.01
2023-05-24T08:24:30.602Z,994.87
2023-05-24T08:25:30.583Z,994.91
2023-05-24T08:26:30.561Z,994.97
2023-05-24T08:27:30.596Z,994.91
2023-05-24T08:28:30.585Z,994.99
2023-05-24T08:29:30.547Z,995.09
2023-05-24T08:30:30.549Z,994.99
2023-05-24T08:31:30.683Z,994.99
2023-05-24T08:32:30.539Z,994.91
2023-05-24T08:33:30.494Z,995.02
2023-05-24T08:34:30.468Z,995.01
2023-05-24T08:35:30.473Z,995.02
2023-05-24T08:36:30.479Z,994.96
2023-05-24T08:37:30.454Z,994.97
2023-05-24T08:38:30.433Z,994.96
2023-05-24T08:39:30.424Z,995.00
2023-05-24T08:40:30.410Z,994.92
2023-05-24T08:41:30.461Z,994.98
2023-05-24T08:42:30.418Z,994.99
2023-05-24T08:43:32.748Z,994.96
2023-05-24T08:44:30.377Z,994.94
2023-05-24T08:45:30.377Z,994.92
2023-05-24T08:46:30.439Z,994.88
2023-05-24T08:47:30.404Z,994.81
2023-05-24T08:48:30.471Z,994.87
2023-05-24T08:49:32.916Z,994.92
2023-05-24T08:50:31.339Z,994.99
2023-05-24T08:51:30.306Z,994.93
2023-05-24T08:52:30.417Z,994.88
2023-05-24T08:53:30.290Z,994.92
2023-05-24T08:54:30.289Z,994.89
2023-05-24T08:55:32.889Z,994.85
2023-05-24T08:56:30.275Z,994.88
2023-05-24T08:57:30.257Z,994.94
2023-05-24T08:58:30.255Z,994.93
2023-05-24T08:59:30.232Z,994.93
2023-05-24T09:00:30.283Z,994.91
2023-05-24T09:01:31.806Z,994.88
2023-05-24T09:02:30.236Z,994.89
2023-05-24T09:03:30.266Z,994.94
2023-05-24T09:04:30.238Z,994.90
2023-05-24T09:05:30.257Z,994.87
2023-05-24T09:06:30.190Z,994.90
2023-05-24T09:07:33.039Z,994.91
2023-05-24T09:08:30.144Z,994.85
2023-05-24T09:09:30.143Z,994.93
2023-05-24T09:10:38.003Z,994.89
2023-05-24T09:11:32.130Z,994.88
2023-05-24T09:12:37.218Z,994.91
2023-05-24T09:13:31.120Z,994.84
2023-05-24T09:14:30.122Z,994.87
2023-05-24T09:15:30.072Z,994.94
2023-05-24T09:16:30.153Z,994.92
2023-05-24T09:17:33.293Z,994.91
2023-05-24T09:18:31.050Z,994.87
2023-05-24T09:19:30.039Z,994.83
2023-05-24T09:20:30.081Z,994.86
2023-05-24T09:21:30.062Z,994.85
2023-05-24T09:22:30.060Z,994.78
2023-05-24T09:23:30.006Z,994.72
2023-05-24T09:24:29.971Z,994.71
2023-05-24T09:25:29.964Z,994.79
2023-05-24T09:26:29.966Z,994.70
2023-05-24T09:27:30.031Z,994.76
2023-05-24T09:28:29.958Z,994.71
2023-05-24T09:29:29.936Z,994.68
2023-05-24T09:30:29.918Z,994.76
2023-05-24T09:31:29.947Z,994.69
2023-05-24T09:32:29.911Z,994.69
2023-05-24T09:33:29.913Z,994.68
2023-05-24T09:34:29.873Z,994.69
2023-05-24T09:35:29.899Z,994.65
2023-05-24T09:36:29.861Z,994.67
2023-05-24T09:37:32.780Z,994.72
2023-05-24T09:38:30.856Z,994.67
2023-05-24T09:39:29.823Z,994.70
2023-05-24T09:40:29.909Z,994.76
2023-05-24T09:41:29.813Z,994.80
2023-05-24T09:42:29.818Z,994.83
2023-05-24T09:43:29.804Z,994.82
2023-05-24T09:44:29.778Z,994.83
2023-05-24T09:45:29.771Z,994.79
2023-05-24T09:46:29.803Z,994.78
2023-05-24T09:47:29.834Z,994.82
2023-05-24T09:48:29.770Z,994.76
2023-05-24T09:49:29.746Z,994.78
2023-05-24T09:50:29.730Z,994.77
2023-05-24T09:51:29.760Z,994.79
2023-05-24T09:52:29.692Z,994.78
2023-05-24T09:53:29.749Z,994.75
2023-05-24T09:54:29.682Z,994.69
2023-05-24T09:55:29.676Z,994.80
2023-05-24T09:56:29.726Z,994.75
2023-05-24T09:57:29.690Z,994.79
2023-05-24T09:58:29.661Z,994.75
2023-05-24T09:59:29.642Z,994.82
2023-05-24T10:00:29.645Z,994.84
2023-05-24T10:01:29.693Z,994.81
2023-05-24T10:02:38.246Z,994.79
2023-05-24T10:03:31.631Z,994.78
2023-05-24T10:04:29.626Z,994.81
2023-05-24T10:05:29.601Z,994.84
2023-05-24T10:06:29.589Z,994.82
2023-05-24T10:07:29.583Z,994.84
2023-05-24T10:08:29.589Z,994.80
2023-05-24T10:09:29.539Z,994.83
2023-05-24T10:10:29.607Z,994.89
2023-05-24T10:11:29.516Z,994.86
2023-05-24T10:12:29.510Z,994.85
2023-05-24T10:13:30.516Z,994.90
2023-05-24T10:14:29.498Z,994.90
2023-05-24T10:15:29.477Z,994.86
2023-05-24T10:16:29.497Z,994.85
2023-05-24T10:17:29.523Z,994.92
2023-05-24T10:18:29.457Z,994.87
2023-05-24T10:19:29.456Z,994.78
2023-05-24T10:20:29.497Z,994.82
2023-05-24T10:21:29.448Z,994.88
2023-05-24T10:22:29.420Z,994.84
2023-05-24T10:23:29.397Z,994.84
2023-05-24T10:24:29.414Z,994.85
2023-05-24T10:25:29.396Z,994.89
2023-05-24T10:26:29.399Z,994.95
2023-05-24T10:27:29.371Z,994.91
2023-05-24T10:28:29.360Z,994.93
2023-05-24T10:29:29.340Z,994.87
2023-05-24T10:30:29.340Z,994.90
2023-05-24T10:31:29.369Z,994.91
2023-05-24T10:32:29.366Z,994.89
2023-05-24T10:33:29.303Z,994.85
2023-05-24T10:34:29.290Z,994.86
2023-05-24T10:35:29.291Z,994.85
2023-05-24T10:36:29.296Z,994.90
2023-05-24T10:37:29.267Z,994.82
2023-05-24T10:38:29.268Z,994.79
2023-05-24T10:39:29.318Z,994.84
2023-05-24T10:40:29.225Z,994.88
2023-05-24T10:41:29.260Z,994.79
2023-05-24T10:42:29.217Z,994.82
2023-05-24T10:43:29.202Z,994.88
2023-05-24T10:44:29.195Z,994.77
2023-05-24T10:45:29.171Z,994.81
2023-05-24T10:46:29.212Z,994.83
2023-05-24T10:47:29.206Z,994.82
2023-05-24T10:48:29.153Z,994.83
2023-05-24T10:49:29.138Z,994.83
2023-05-24T10:50:29.123Z,994.77
2023-05-24T10:51:29.121Z,994.81
2023-05-24T10:52:29.131Z,994.82
2023-05-24T10:53:29.133Z,994.86
2023-05-24T10:54:29.085Z,994.89
2023-05-24T10:55:29.088Z,994.82
2023-05-24T10:56:29.069Z,994.81
2023-05-24T10:57:29.110Z,994.75
2023-05-24T10:58:29.062Z,994.82
2023-05-24T10:59:29.038Z,994.81
2023-05-24T11:01:30.093Z,994.75
2023-05-24T11:03:02.142Z,994.73
2023-05-24T11:03:29.012Z,994.72
2023-05-24T11:04:29.057Z,994.76
2023-05-24T11:05:29.025Z,994.73
2023-05-24T11:06:28.997Z,994.77
2023-05-24T11:07:29.161Z,994.75
2023-05-24T11:08:29.000Z,994.77
2023-05-24T11:09:29.027Z,994.72
2023-05-24T11:10:28.956Z,994.75
2023-05-24T11:11:31.395Z,994.68
2023-05-24T11:12:29.942Z,994.73
2023-05-24T11:13:28.937Z,994.71
2023-05-24T11:14:28.923Z,994.68
2023-05-24T11:15:28.903Z,994.66
2023-05-24T11:16:28.994Z,994.71
2023-05-24T11:17:28.918Z,994.62
2023-05-24T11:18:28.885Z,994.62
2023-05-24T11:19:28.878Z,994.62
2023-05-24T11:20:28.917Z,994.58
2023-05-24T11:21:28.846Z,994.63
2023-05-24T11:22:28.828Z,994.59
2023-05-24T11:23:28.861Z,994.57
2023-05-24T11:24:28.809Z,994.53
2023-05-24T11:25:28.817Z,994.57
2023-05-24T11:26:28.789Z,994.53
2023-05-24T11:27:28.813Z,994.52
2023-05-24T11:28:28.819Z,994.52
2023-05-24T11:29:28.782Z,994.49
2023-05-24T11:30:28.759Z,994.52
2023-05-24T11:31:28.801Z,994.54
2023-05-24T11:32:28.779Z,994.55
2023-05-24T11:33:28.728Z,994.56
2023-05-24T11:34:28.719Z,994.51
2023-05-24T11:35:28.697Z,994.47
2023-05-24T11:36:29.697Z,994.51
2023-05-24T11:37:42.595Z,994.54
2023-05-24T11:38:29.669Z,994.55
2023-05-24T11:39:28.653Z,994.48
2023-05-24T11:40:28.688Z,994.55
2023-05-24T11:41:28.641Z,994.51
2023-05-24T11:42:28.697Z,994.53
2023-05-24T11:43:28.685Z,994.57
2023-05-24T11:44:28.616Z,994.54
2023-05-24T11:45:28.594Z,994.56
2023-05-24T11:46:28.650Z,994.53
2023-05-24T11:47:28.693Z,994.45
2023-05-24T11:48:28.609Z,994.46
2023-05-24T11:49:28.565Z,994.44
2023-05-24T11:50:28.837Z,994.49
2023-05-24T11:51:29.570Z,994.55
2023-05-24T11:52:28.522Z,994.51
2023-05-24T11:53:28.571Z,994.38
2023-05-24T11:54:28.596Z,994.34
2023-05-24T11:55:28.502Z,994.39
2023-05-24T11:56:29.732Z,994.42
2023-05-24T11:57:28.471Z,994.45
2023-05-24T11:58:28.523Z,994.41
2023-05-24T11:59:28.489Z,994.37
2023-05-24T12:00:28.481Z,994.37
2023-05-24T12:01:28.473Z,994.38
2023-05-24T12:02:28.512Z,994.40
2023-05-24T12:03:28.635Z,994.42
2023-05-24T12:04:28.581Z,994.44
2023-05-24T12:05:28.436Z,994.44
2023-05-24T12:06:28.397Z,994.42
2023-05-24T12:07:28.385Z,994.37
2023-05-24T12:08:28.372Z,994.42
2023-05-24T12:09:28.368Z,994.33
2023-05-24T12:10:28.383Z,994.39
2023-05-24T12:11:28.370Z,994.32
2023-05-24T12:12:34.384Z,994.42
2023-05-24T12:13:29.337Z,994.30
2023-05-24T12:14:28.330Z,994.31
2023-05-24T12:15:28.298Z,994.24
2023-05-24T12:16:28.452Z,994.17
2023-05-24T12:17:28.320Z,994.25
2023-05-24T12:18:28.285Z,994.26
2023-05-24T12:20:28.272Z,994.17
2023-05-24T12:21:28.266Z,994.07
2023-05-24T12:22:28.316Z,994.13
2023-05-24T12:23:28.226Z,994.13
2023-05-24T12:24:28.540Z,994.13
2023-05-24T12:25:28.219Z,994.13
2023-05-24T12:26:28.234Z,994.07
2023-05-24T12:27:28.215Z,994.12
2023-05-24T12:28:28.172Z,994.10
2023-05-24T12:29:28.180Z,994.17
2023-05-24T12:30:28.162Z,994.20